Time;durP1;ratioP1;P1;durP2;ratioP2;P2;SDS_P1;SDS_P2;PMS_P1;PMS_P2;Temp;Humidity;BMP_temperature;BMP_pressure;BME280_temperature;BME280_humidity;BME280_pressure;Samples;Min_cycle;Max_cycle;Signal;HPM_P1;HPM_P2
2020/12/14 00:00:07;;;;;;;13.67;12.23;;;6.40;99.90;;;;;;5031496;28;20225;-42
2020/12/14 00:02:34;;;;;;;15.40;12.20;;;6.40;99.90;;;;;;5031498;28;20664;-41
2020/12/14 00:05:00;;;;;;;15.17;12.50;;;6.40;99.90;;;;;;5031494;28;20295;-41
2020/12/14 00:07:28;;;;;;;12.77;11.47;;;6.40;99.90;;;;;;5031143;28;20215;-41
2020/12/14 00:09:55;;;;;;;12.37;11.07;;;6.40;99.90;;;;;;5031264;28;20199;-41
2020/12/14 00:12:21;;;;;;;12.63;11.33;;;6.50;99.90;;;;;;5031401;28;20223;-41
2020/12/14 00:14:48;;;;;;;14.33;10.90;;;6.40;99.90;;;;;;5031558;28;20663;-41
2020/12/14 00:17:18;;;;;;;17.80;11.27;;;6.40;99.90;;;;;;5031062;28;20215;-41
2020/12/14 00:19:44;;;;;;;13.90;11.57;;;6.40;99.90;;;;;;5030103;28;20319;-41
2020/12/14 00:22:11;;;;;;;13.07;11.37;;;6.40;99.90;;;;;;5031219;28;20307;-41
2020/12/14 00:24:37;;;;;;;12.93;9.13;;;6.40;99.90;;;;;;5031148;28;20231;-40
2020/12/14 00:27:04;;;;;;;12.52;10.77;;;6.40;99.90;;;;;;5030948;28;20698;-41
2020/12/14 00:29:31;;;;;;;11.20;10.03;;;6.40;99.90;;;;;;5032052;28;20203;-41
2020/12/14 00:31:58;;;;;;;12.67;9.20;;;6.40;99.90;;;;;;5031062;28;20722;-41
2020/12/14 00:34:25;;;;;;;10.90;9.80;;;6.40;99.90;;;;;;5032135;28;20199;-41
2020/12/14 00:36:51;;;;;;;13.13;10.53;;;6.40;99.90;;;;;;5046048;28;20226;-41
2020/12/14 00:39:18;;;;;;;11.77;10.30;;;6.50;99.90;;;;;;5051661;28;20217;-41
2020/12/14 00:41:44;;;;;;;12.57;10.20;;;6.40;99.90;;;;;;5050721;28;20215;-41
2020/12/14 00:44:11;;;;;;;11.67;9.40;;;6.50;99.90;;;;;;5051033;28;20255;-41
2020/12/14 00:46:37;;;;;;;13.37;11.97;;;6.40;99.90;;;;;;5050505;28;20210;-41
2020/12/14 00:49:05;;;;;;;11.17;9.30;;;6.40;99.90;;;;;;5050662;28;20199;-41
2020/12/14 00:51:31;;;;;;;10.63;9.25;;;6.50;99.90;;;;;;5050268;28;20253;-41
2020/12/14 00:53:59;;;;;;;10.70;9.43;;;6.50;99.90;;;;;;5050551;28;20245;-41
2020/12/14 00:56:25;;;;;;;10.17;8.73;;;6.50;99.90;;;;;;5050093;28;20253;-41
2020/12/14 00:58:52;;;;;;;14.33;9.17;;;6.50;99.90;;;;;;5050510;28;20267;-41
2020/12/14 01:01:19;;;;;;;11.97;10.77;;;6.50;99.90;;;;;;5050134;28;20235;-41
2020/12/14 01:03:46;;;;;;;10.38;9.25;;;6.50;99.90;;;;;;5050729;28;20199;-41
2020/12/14 01:06:13;;;;;;;13.30;9.43;;;6.60;99.90;;;;;;5050355;28;20203;-41
2020/12/14 01:08:41;;;;;;;12.43;9.97;;;6.60;99.90;;;;;;5050155;28;20678;-41
2020/12/14 01:11:08;;;;;;;11.93;10.60;;;6.50;99.90;;;;;;5050409;28;20631;-41
2020/12/14 01:13:35;;;;;;;17.02;12.18;;;6.50;99.90;;;;;;5050524;28;20199;-41
2020/12/14 01:16:07;;;;;;;14.65;12.23;;;6.40;99.90;;;;;;5050236;28;20247;-41
2020/12/14 01:18:33;;;;;;;15.30;13.70;;;6.40;99.90;;;;;;5050416;28;20207;-41
2020/12/14 01:21:00;;;;;;;18.30;13.23;;;6.40;99.90;;;;;;5050287;28;20623;-41
2020/12/14 01:23:27;;;;;;;14.87;13.37;;;6.50;99.90;;;;;;5050295;28;20294;-41
2020/12/14 01:25:54;;;;;;;18.43;14.40;;;6.40;99.90;;;;;;5050301;28;20198;-41
2020/12/14 01:28:20;;;;;;;19.90;15.33;;;6.40;99.90;;;;;;5050244;28;20246;-41
2020/12/14 01:30:47;;;;;;;18.65;15.93;;;6.40;99.90;;;;;;5049831;28;20250;-41
2020/12/14 01:33:13;;;;;;;17.33;14.73;;;6.30;99.90;;;;;;5050068;28;20213;-41
2020/12/14 01:35:40;;;;;;;25.30;15.90;;;6.30;99.90;;;;;;5045093;28;20199;-41
2020/12/14 01:38:06;;;;;;;17.67;15.87;;;6.20;99.90;;;;;;5030001;28;20214;-41
2020/12/14 01:40:34;;;;;;;14.23;12.77;;;6.20;99.90;;;;;;5030527;28;20649;-41
2020/12/14 01:43:00;;;;;;;15.70;13.83;;;6.20;99.90;;;;;;5030642;28;20602;-41
2020/12/14 01:45:27;;;;;;;20.90;15.53;;;6.10;99.90;;;;;;5030307;28;20204;-41
2020/12/14 01:47:57;;;;;;;19.27;13.60;;;6.00;99.90;;;;;;5030573;28;20601;-41
2020/12/14 01:50:23;;;;;;;17.33;13.80;;;6.10;99.90;;;;;;5033836;28;20282;-41
2020/12/14 01:52:50;;;;;;;15.93;13.40;;;6.10;99.90;;;;;;5036644;28;20204;-42
2020/12/14 01:55:19;;;;;;;16.13;12.87;;;6.10;99.90;;;;;;5034012;28;20200;-41
2020/12/14 01:57:47;;;;;;;19.97;15.77;;;6.10;99.90;;;;;;5033664;28;20625;-41
2020/12/14 02:00:13;;;;;;;15.55;12.85;;;6.00;99.90;;;;;;5033749;28;20206;-41
2020/12/14 02:02:40;;;;;;;19.77;14.10;;;6.00;99.90;;;;;;5033737;28;20262;-41
2020/12/14 02:05:07;;;;;;;15.43;12.57;;;6.00;99.90;;;;;;5033442;28;20203;-41
2020/12/14 02:07:34;;;;;;;15.40;11.90;;;5.90;99.90;;;;;;5033203;28;20234;-41
2020/12/14 02:10:01;;;;;;;14.13;12.40;;;5.80;99.90;;;;;;5033451;28;20215;-41
2020/12/14 02:12:28;;;;;;;14.45;12.05;;;5.70;99.90;;;;;;5033385;28;20327;-41
2020/12/14 02:14:57;;;;;;;14.17;12.37;;;5.70;99.90;;;;;;5038751;28;20227;-41
2020/12/14 02:17:25;;;;;;;14.53;12.57;;;5.80;99.90;;;;;;5042156;28;20237;-41
2020/12/14 02:19:52;;;;;;;12.87;11.20;;;5.80;99.90;;;;;;5042799;28;20730;-42
2020/12/14 02:22:19;;;;;;;15.47;10.80;;;5.70;99.90;;;;;;5043528;28;20227;-41
2020/12/14 02:24:54;;;;;;;13.43;10.83;;;5.80;99.90;;;;;;5042440;28;20204;-41
2020/12/14 02:27:20;;;;;;;11.60;10.13;;;5.80;99.90;;;;;;5052282;28;20618;-42
2020/12/14 02:29:48;;;;;;;11.70;9.73;;;5.80;99.90;;;;;;5044591;28;20207;-41
2020/12/14 02:32:16;;;;;;;9.82;8.10;;;5.90;99.90;;;;;;5033099;28;20222;-41
2020/12/14 02:34:43;;;;;;;12.53;9.03;;;5.90;99.90;;;;;;5033362;28;20217;-41
2020/12/14 02:37:12;;;;;;;14.53;9.60;;;5.90;99.90;;;;;;5036682;28;20203;-42
2020/12/14 02:39:39;;;;;;;10.70;8.47;;;5.90;99.90;;;;;;5038272;28;20207;-41
2020/12/14 02:42:12;;;;;;;11.53;9.00;;;5.90;99.90;;;;;;5037925;28;20235;-41
2020/12/14 02:44:38;;;;;;;13.27;10.33;;;5.90;99.90;;;;;;5033322;28;20710;-41
2020/12/14 02:47:05;;;;;;;13.20;9.77;;;5.80;99.90;;;;;;5033800;28;20206;-42
2020/12/14 02:49:40;;;;;;;13.13;9.23;;;5.80;99.90;;;;;;5033969;28;20646;-41
2020/12/14 02:52:09;;;;;;;12.67;9.00;;;5.90;99.90;;;;;;5049922;28;20226;-41
2020/12/14 02:54:36;;;;;;;11.80;9.10;;;5.90;99.90;;;;;;5052344;28;20195;-41
2020/12/14 02:57:03;;;;;;;10.07;9.00;;;5.90;99.90;;;;;;5052142;28;20722;-42
2020/12/14 02:59:30;;;;;;;11.80;10.13;;;5.80;99.90;;;;;;5052111;28;20633;-41
2020/12/14 03:01:57;;;;;;;12.03;8.63;;;5.80;99.90;;;;;;5052106;28;20310;-41
2020/12/14 03:04:23;;;;;;;14.97;9.67;;;5.80;99.90;;;;;;5052131;28;20203;-41
2020/12/14 03:06:50;;;;;;;11.57;9.80;;;5.90;99.90;;;;;;5051923;28;20283;-41
2020/12/14 03:09:18;;;;;;;9.27;8.23;;;5.90;99.90;;;;;;5052479;28;20261;-41
2020/12/14 03:11:45;;;;;;;10.43;8.33;;;5.80;99.90;;;;;;5052461;28;20627;-41
2020/12/14 03:14:12;;;;;;;10.60;8.73;;;5.80;99.90;;;;;;5052317;28;20603;-41
2020/12/14 03:16:40;;;;;;;10.33;8.37;;;5.70;99.90;;;;;;5052143;28;20692;-41
2020/12/14 03:19:07;;;;;;;11.00;7.60;;;5.80;99.90;;;;;;5052093;28;20198;-41
2020/12/14 03:21:34;;;;;;;8.87;6.80;;;5.80;99.90;;;;;;5052476;28;20223;-41
2020/12/14 03:24:00;;;;;;;10.70;7.83;;;5.80;99.90;;;;;;5052265;28;20658;-41
2020/12/14 03:26:27;;;;;;;10.15;8.63;;;5.90;99.90;;;;;;5051329;28;20302;-41
2020/12/14 03:28:54;;;;;;;9.63;8.37;;;5.90;99.90;;;;;;5047989;28;20727;-41
2020/12/14 03:31:21;;;;;;;10.40;8.20;;;6.00;99.90;;;;;;5051772;28;20233;-41
2020/12/14 03:33:50;;;;;;;8.40;6.90;;;6.00;99.90;;;;;;5052159;28;20199;-42
2020/12/14 03:36:16;;;;;;;9.77;8.77;;;6.00;99.90;;;;;;5052130;28;20195;-41
2020/12/14 03:38:43;;;;;;;8.50;7.37;;;6.00;99.90;;;;;;5051682;28;20237;-41
2020/12/14 03:41:09;;;;;;;8.90;6.50;;;6.10;99.90;;;;;;5051340;28;20231;-41
2020/12/14 03:43:36;;;;;;;7.37;6.57;;;6.10;99.90;;;;;;5051349;28;20192;-41
2020/12/14 03:46:02;;;;;;;7.53;6.80;;;6.10;99.90;;;;;;5051787;28;20237;-41
2020/12/14 03:48:29;;;;;;;8.63;5.50;;;6.20;99.90;;;;;;5051328;28;20237;-41
2020/12/14 03:50:56;;;;;;;7.30;5.90;;;6.20;99.90;;;;;;5051426;28;20243;-41
2020/12/14 03:53:23;;;;;;;6.75;6.13;;;6.30;99.90;;;;;;5051456;28;20227;-42
2020/12/14 03:55:51;;;;;;;6.70;5.77;;;6.30;99.90;;;;;;5044434;28;20291;-41
2020/12/14 03:58:17;;;;;;;8.07;7.20;;;6.20;99.90;;;;;;5032027;28;20659;-40
2020/12/14 04:00:46;;;;;;;7.03;6.38;;;6.30;99.90;;;;;;5031700;28;20246;-41
2020/12/14 04:03:12;;;;;;;7.13;6.53;;;6.40;99.90;;;;;;5031776;28;20204;-41
2020/12/14 04:05:39;;;;;;;8.03;7.00;;;6.40;99.90;;;;;;5031363;28;20263;-41
2020/12/14 04:08:06;;;;;;;7.77;6.47;;;6.50;99.90;;;;;;5031011;28;20270;-41
2020/12/14 04:10:36;;;;;;;9.90;6.50;;;6.50;99.90;;;;;;5030639;28;20307;-41
2020/12/14 04:13:02;;;;;;;7.53;6.60;;;6.50;99.90;;;;;;5031322;28;20367;-42
2020/12/14 04:15:29;;;;;;;7.20;6.60;;;6.50;99.90;;;;;;5031351;28;20615;-42
2020/12/14 04:17:56;;;;;;;7.43;6.60;;;6.60;99.90;;;;;;5030796;28;20246;-41
2020/12/14 04:20:22;;;;;;;6.43;5.83;;;6.80;99.90;;;;;;5030803;28;20231;-41
2020/12/14 04:22:49;;;;;;;7.23;6.43;;;6.60;99.90;;;;;;5031131;28;20227;-41
2020/12/14 04:25:17;;;;;;;13.73;6.97;;;6.70;99.90;;;;;;5046208;28;20211;-41
2020/12/14 04:27:43;;;;;;;8.13;6.60;;;6.70;99.90;;;;;;5050118;28;20220;-41
2020/12/14 04:30:10;;;;;;;8.83;7.03;;;6.60;99.90;;;;;;5050143;28;20203;-41
2020/12/14 04:32:37;;;;;;;8.20;7.33;;;6.70;99.90;;;;;;5050633;28;20197;-41
2020/12/14 04:35:04;;;;;;;7.93;7.00;;;6.70;99.90;;;;;;5050495;28;20286;-41
2020/12/14 04:37:31;;;;;;;9.53;8.10;;;6.70;99.90;;;;;;5050094;28;20618;-41
2020/12/14 04:39:57;;;;;;;9.50;7.70;;;6.70;99.90;;;;;;5049990;28;20234;-41
2020/12/14 04:42:25;;;;;;;9.40;6.87;;;6.70;99.90;;;;;;5052211;28;20223;-41
2020/12/14 04:44:53;;;;;;;10.10;8.50;;;6.70;99.90;;;;;;5051083;28;20211;-41
2020/12/14 04:47:21;;;;;;;9.27;8.03;;;6.70;99.90;;;;;;5049927;28;20199;-41
2020/12/14 04:49:48;;;;;;;9.03;7.00;;;6.70;99.90;;;;;;5050178;28;20570;-41
2020/12/14 04:52:17;;;;;;;7.32;6.35;;;6.60;99.90;;;;;;5049758;28;20215;-41
2020/12/14 04:54:46;;;;;;;10.20;6.70;;;6.60;99.90;;;;;;5050165;28;20257;-41
2020/12/14 04:57:13;;;;;;;6.95;6.25;;;6.60;99.90;;;;;;5049754;28;20234;-43
2020/12/14 04:59:41;;;;;;;7.83;6.47;;;6.60;99.90;;;;;;5050271;28;20250;-41
2020/12/14 05:02:09;;;;;;;6.78;6.18;;;6.50;99.90;;;;;;5071985;22;20348;-41
2020/12/14 05:04:36;;;;;;;8.98;6.13;;;6.50;99.90;;;;;;5062961;28;20296;-41
2020/12/14 05:07:03;;;;;;;7.83;6.80;;;6.50;99.90;;;;;;5071291;28;20745;-41
2020/12/14 05:09:30;;;;;;;6.23;5.67;;;6.60;99.90;;;;;;5070117;28;20764;-41
2020/12/14 05:11:56;;;;;;;8.10;6.97;;;6.50;99.90;;;;;;5070122;28;20261;-42
2020/12/14 05:14:24;;;;;;;6.37;5.77;;;6.50;99.90;;;;;;5070375;28;20194;-41
2020/12/14 05:16:52;;;;;;;8.02;5.93;;;6.50;99.90;;;;;;5069827;28;20222;-41
2020/12/14 05:19:20;;;;;;;7.17;5.80;;;6.50;99.90;;;;;;5032981;28;20212;-41
2020/12/14 05:21:49;;;;;;;8.33;7.20;;;6.60;99.90;;;;;;5038353;28;20272;-41
2020/12/14 05:24:20;;;;;;;6.50;5.87;;;6.50;99.90;;;;;;5046645;28;20682;-42
2020/12/14 05:26:48;;;;;;;6.00;5.32;;;6.50;99.90;;;;;;5046622;28;20207;-42
2020/12/14 05:29:19;;;;;;;7.67;5.17;;;6.50;99.90;;;;;;5045355;28;20725;-41
2020/12/14 05:32:04;;;;;;;5.37;4.87;;;6.40;99.90;;;;;;5034673;28;20216;-41
2020/12/14 05:34:32;;;;;;;7.47;5.67;;;6.50;99.90;;;;;;5038439;28;20231;-41
2020/12/14 05:36:59;;;;;;;7.23;4.97;;;6.50;99.90;;;;;;5039563;28;20231;-41
2020/12/14 05:39:27;;;;;;;6.78;5.53;;;6.50;99.90;;;;;;5034726;28;20708;-41
2020/12/14 05:41:54;;;;;;;5.05;4.65;;;6.50;99.90;;;;;;5035597;28;20216;-41
2020/12/14 05:44:27;;;;;;;5.37;4.80;;;6.50;99.90;;;;;;5033890;28;20261;-41
2020/12/14 05:46:54;;;;;;;9.83;5.33;;;6.40;99.90;;;;;;5033724;28;20847;-41
2020/12/14 05:49:21;;;;;;;6.10;5.50;;;6.50;99.90;;;;;;5033683;28;20632;-42
2020/12/14 05:51:48;;;;;;;5.43;4.90;;;6.50;99.90;;;;;;5033426;28;20250;-41
2020/12/14 05:54:24;;;;;;;5.53;5.03;;;6.50;99.90;;;;;;5033648;28;20278;-41
2020/12/14 05:56:54;;;;;;;6.70;4.93;;;6.60;99.90;;;;;;5033662;28;20203;-41
2020/12/14 05:59:21;;;;;;;5.43;4.53;;;6.50;99.90;;;;;;5047809;28;20265;-40
2020/12/14 06:01:49;;;;;;;5.20;4.57;;;6.50;99.90;;;;;;5051344;28;20260;-41
2020/12/14 06:04:19;;;;;;;4.87;4.37;;;6.50;99.90;;;;;;5051761;28;20297;-41
2020/12/14 06:06:50;;;;;;;5.03;4.45;;;6.50;99.90;;;;;;5051425;28;20775;-41
2020/12/14 06:09:21;;;;;;;3.67;3.33;;;6.50;99.90;;;;;;5051871;28;20258;-42
2020/12/14 06:11:52;;;;;;;4.63;4.07;;;6.40;99.90;;;;;;5051487;28;20306;-41
2020/12/14 06:14:21;;;;;;;5.47;4.63;;;6.40;99.90;;;;;;5051902;28;20666;-42
2020/12/14 06:16:47;;;;;;;5.23;4.13;;;6.40;99.90;;;;;;5053009;28;20207;-41
2020/12/14 06:19:14;;;;;;;5.23;4.03;;;6.30;99.90;;;;;;5053530;28;20238;-41
2020/12/14 06:21:46;;;;;;;7.17;4.77;;;6.30;99.90;;;;;;5052729;28;20227;-41
2020/12/14 06:24:20;;;;;;;4.90;3.80;;;6.30;99.90;;;;;;5053179;28;20226;-41
2020/12/14 06:26:47;;;;;;;4.27;3.87;;;6.40;99.90;;;;;;5053070;28;20195;-40
2020/12/14 06:29:31;;;;;;;6.07;4.77;;;6.40;99.90;;;;;;5053179;28;20310;-41
2020/12/14 06:31:58;;;;;;;4.27;3.67;;;6.40;99.90;;;;;;5051586;28;20306;-41
2020/12/14 06:34:41;;;;;;;4.20;3.80;;;6.50;99.90;;;;;;5052379;28;20278;-41
2020/12/14 06:37:07;;;;;;;4.27;3.87;;;6.50;99.90;;;;;;5053023;28;20282;-40
2020/12/14 06:39:41;;;;;;;7.37;3.67;;;6.50;99.90;;;;;;5053066;28;20199;-41
2020/12/14 06:42:22;;;;;;;4.67;3.90;;;6.50;99.90;;;;;;5052791;28;20230;-40
2020/12/14 06:45:11;;;;;;;5.63;3.73;;;6.60;99.90;;;;;;5052696;28;20226;-41
2020/12/14 06:47:43;;;;;;;4.00;3.17;;;6.50;99.90;;;;;;5052479;28;20199;-41
2020/12/14 06:50:40;;;;;;;4.78;4.13;;;6.50;99.90;;;;;;5051278;28;20233;-41
2020/12/14 06:53:37;;;;;;;6.23;4.60;;;6.50;99.90;;;;;;5052741;28;20241;-41
2020/12/14 06:56:05;;;;;;;3.80;3.47;;;6.50;99.90;;;;;;5052873;28;20195;-41
2020/12/14 06:58:41;;;;;;;5.17;4.50;;;6.60;99.90;;;;;;5052279;28;20571;-40
2020/12/14 07:01:33;;;;;;;4.78;4.30;;;6.50;99.90;;;;;;5051908;28;20639;-40
2020/12/14 07:04:01;;;;;;;5.10;3.70;;;6.50;99.90;;;;;;5033738;28;20281;-40
2020/12/14 07:06:28;;;;;;;4.07;3.50;;;6.40;99.90;;;;;;5052454;28;20223;-40
2020/12/14 07:08:55;;;;;;;8.93;4.25;;;6.50;99.90;;;;;;5052089;28;20225;-41
2020/12/14 07:11:24;;;;;;;8.40;3.55;;;6.50;99.90;;;;;;5052573;28;20235;-40
2020/12/14 07:13:52;;;;;;;5.40;4.43;;;6.50;99.90;;;;;;5052439;28;20275;-41
2020/12/14 07:16:26;;;;;;;8.83;4.13;;;6.50;99.90;;;;;;5052732;28;20199;-41
2020/12/14 07:18:53;;;;;;;3.90;3.50;;;6.50;99.90;;;;;;5051968;28;20229;-41
2020/12/14 07:21:21;;;;;;;4.53;3.60;;;6.50;99.90;;;;;;5034051;28;20239;-40
2020/12/14 07:23:48;;;;;;;6.90;4.40;;;6.50;99.90;;;;;;5052076;28;20207;-41
2020/12/14 07:26:16;;;;;;;4.82;4.00;;;6.60;99.90;;;;;;5054903;28;20192;-40
2020/12/14 07:28:46;;;;;;;5.73;4.07;;;6.50;99.90;;;;;;5051864;28;20318;-41
2020/12/14 07:31:15;;;;;;;3.72;3.38;;;6.50;99.90;;;;;;5051327;28;20792;-42
2020/12/14 07:33:53;;;;;;;4.47;3.00;;;6.50;99.90;;;;;;5051885;28;20214;-42
2020/12/14 07:36:20;;;;;;;6.70;3.93;;;6.50;99.90;;;;;;5051883;28;20188;-42
2020/12/14 07:38:49;;;;;;;4.03;3.73;;;6.40;99.90;;;;;;5051662;28;20286;-42
2020/12/14 07:41:16;;;;;;;5.30;3.43;;;6.50;99.90;;;;;;5051631;28;20269;-41
2020/12/14 07:43:45;;;;;;;4.82;3.25;;;6.50;99.90;;;;;;5051706;28;20654;-41
2020/12/14 07:46:33;;;;;;;3.40;3.10;;;6.50;99.90;;;;;;5050552;28;20295;-42
2020/12/14 07:49:06;;;;;;;3.57;3.27;;;6.60;99.90;;;;;;5045453;28;20226;-42
2020/12/14 07:51:34;;;;;;;3.50;3.20;;;6.50;99.90;;;;;;5050214;28;20227;-39
2020/12/14 07:54:06;;;;;;;4.77;3.20;;;6.60;99.90;;;;;;5051385;28;20202;-39
2020/12/14 07:56:41;;;;;;;3.27;2.97;;;6.70;99.90;;;;;;5048090;28;20195;-39
2020/12/14 07:59:21;;;;;;;3.38;3.08;;;6.80;99.90;;;;;;5033860;28;20737;-39
2020/12/14 08:01:49;;;;;;;3.87;2.23;;;6.80;99.90;;;;;;5051171;28;20235;-39
2020/12/14 08:04:24;;;;;;;3.43;2.07;;;6.90;99.90;;;;;;5051391;28;20747;-40
2020/12/14 08:06:52;;;;;;;2.17;2.08;;;7.00;99.90;;;;;;5051059;28;20328;-39
2020/12/14 08:09:20;;;;;;;3.43;2.40;;;7.10;99.90;;;;;;5051163;28;20203;-39
2020/12/14 08:11:48;;;;;;;3.67;2.30;;;7.10;99.90;;;;;;5051046;28;20269;-39
2020/12/14 08:14:17;;;;;;;2.13;1.90;;;7.10;99.90;;;;;;5052490;28;20195;-39
2020/12/14 08:16:45;;;;;;;3.30;2.43;;;7.20;99.90;;;;;;5050851;28;20632;-40
2020/12/14 08:19:16;;;;;;;5.27;3.20;;;7.30;99.90;;;;;;5050985;28;20192;-39
2020/12/14 08:22:00;;;;;;;7.30;2.45;;;7.30;99.90;;;;;;5032847;28;20305;-39
2020/12/14 08:24:27;;;;;;;2.63;1.90;;;7.40;99.90;;;;;;5050781;28;20195;-39
2020/12/14 08:26:58;;;;;;;2.20;2.05;;;7.40;99.90;;;;;;5050440;28;20200;-39
2020/12/14 08:29:27;;;;;;;2.80;2.57;;;7.40;99.90;;;;;;5050918;28;20322;-39
2020/12/14 08:31:57;;;;;;;5.03;2.33;;;7.40;99.90;;;;;;5033032;28;20302;-39
2020/12/14 08:34:37;;;;;;;2.25;2.05;;;7.40;99.90;;;;;;5051596;28;20282;-39
2020/12/14 08:37:05;;;;;;;4.37;2.10;;;7.30;99.90;;;;;;5050971;28;20257;-39
2020/12/14 08:39:32;;;;;;;2.75;2.00;;;7.40;99.90;;;;;;5051103;28;20192;-39
2020/12/14 08:42:10;;;;;;;2.17;1.92;;;7.40;99.90;;;;;;5051297;28;20229;-39
2020/12/14 08:44:38;;;;;;;2.95;2.70;;;7.50;99.90;;;;;;5051419;28;20294;-39
2020/12/14 08:47:14;;;;;;;5.28;2.30;;;7.50;99.90;;;;;;5045373;28;20230;-40
2020/12/14 08:49:40;;;;;;;3.10;2.55;;;7.70;99.90;;;;;;5055652;28;20225;-39
2020/12/14 08:52:08;;;;;;;4.63;2.00;;;7.60;99.90;;;;;;5053008;28;20225;-40
2020/12/14 08:54:34;;;;;;;5.73;2.20;;;7.60;99.90;;;;;;5048009;28;20202;-39
2020/12/14 08:57:01;;;;;;;4.27;1.90;;;7.50;99.90;;;;;;5043512;28;20323;-40
2020/12/14 08:59:27;;;;;;;3.10;2.37;;;7.50;99.90;;;;;;5048521;28;20203;-39
2020/12/14 09:01:56;;;;;;;3.83;1.93;;;7.60;99.90;;;;;;5049517;28;20230;-39
2020/12/14 09:04:31;;;;;;;1.90;1.80;;;7.60;99.90;;;;;;5047754;28;20213;-39
2020/12/14 09:06:58;;;;;;;5.43;2.30;;;7.60;99.90;;;;;;5046459;28;20208;-39
2020/12/14 09:09:30;;;;;;;2.67;2.20;;;7.80;99.90;;;;;;5050034;28;20222;-42
2020/12/14 09:11:57;;;;;;;3.03;1.87;;;7.90;99.90;;;;;;5055399;28;20317;-40
2020/12/14 09:14:25;;;;;;;2.00;1.80;;;8.20;99.90;;;;;;5047645;28;21721;-40
2020/12/14 09:16:53;;;;;;;5.07;2.13;;;8.00;99.90;;;;;;5040235;28;20279;-40
2020/12/14 09:19:20;;;;;;;3.10;2.00;;;8.00;99.90;;;;;;5038164;28;20207;-40
2020/12/14 09:21:48;;;;;;;4.50;2.07;;;8.00;99.90;;;;;;5040895;28;20218;-40
2020/12/14 09:24:17;;;;;;;3.13;2.07;;;8.10;99.90;;;;;;5041561;28;20570;-41
2020/12/14 09:26:45;;;;;;;4.00;2.07;;;8.10;99.90;;;;;;5042371;28;20211;-40
2020/12/14 09:29:12;;;;;;;1.80;1.70;;;8.10;99.90;;;;;;5038678;28;20219;-40
2020/12/14 09:31:40;;;;;;;3.10;1.90;;;8.10;99.90;;;;;;5039215;28;20595;-39
2020/12/14 09:34:06;;;;;;;2.70;1.50;;;8.10;99.90;;;;;;5044049;28;20191;-40
2020/12/14 09:36:34;;;;;;;1.65;1.48;;;8.00;99.90;;;;;;5041980;28;20263;-39
2020/12/14 09:39:01;;;;;;;2.87;2.27;;;8.10;99.90;;;;;;5038106;28;20193;-39
2020/12/14 09:41:32;;;;;;;5.40;2.37;;;8.20;99.90;;;;;;5035372;28;20311;-40
2020/12/14 09:43:59;;;;;;;4.50;1.95;;;8.30;99.90;;;;;;5043533;28;20208;-40
2020/12/14 09:46:26;;;;;;;2.23;1.93;;;8.30;99.90;;;;;;5033026;28;20686;-40
2020/12/14 09:48:54;;;;;;;1.83;1.70;;;8.30;99.90;;;;;;5034573;28;20220;-43
2020/12/14 09:51:20;;;;;;;2.20;2.00;;;8.50;99.90;;;;;;5042296;28;20251;-40
2020/12/14 09:53:47;;;;;;;2.50;1.77;;;8.70;99.90;;;;;;5044306;28;20206;-40
2020/12/14 09:56:15;;;;;;;2.63;1.83;;;8.80;99.90;;;;;;5041234;28;20258;-40
2020/12/14 09:58:41;;;;;;;3.03;1.80;;;8.80;99.90;;;;;;5043275;28;20767;-40
2020/12/14 10:01:09;;;;;;;2.08;1.80;;;8.80;99.90;;;;;;5036991;28;20254;-40
2020/12/14 10:03:36;;;;;;;2.37;2.07;;;8.60;99.90;;;;;;5041444;28;20685;-41
2020/12/14 10:06:03;;;;;;;2.60;1.60;;;8.60;99.90;;;;;;5033803;28;20654;-41
2020/12/14 10:08:29;;;;;;;1.95;1.60;;;8.80;99.90;;;;;;5039997;28;20289;-41
2020/12/14 10:10:56;;;;;;;3.10;1.53;;;9.00;99.90;;;;;;5037924;28;20213;-41
2020/12/14 10:13:24;;;;;;;2.15;1.60;;;9.50;99.90;;;;;;5047681;28;20227;-41
2020/12/14 10:15:51;;;;;;;3.70;1.30;;;9.70;99.90;;;;;;5035660;28;20207;-41
2020/12/14 10:18:18;;;;;;;3.50;2.40;;;9.70;99.90;;;;;;5040200;28;20224;-41
2020/12/14 10:20:44;;;;;;;2.95;1.95;;;9.70;99.90;;;;;;5043711;28;20256;-41
2020/12/14 10:23:11;;;;;;;3.67;1.70;;;9.40;99.90;;;;;;5047081;28;20215;-41
2020/12/14 10:25:38;;;;;;;2.27;1.40;;;9.20;99.90;;;;;;5026605;28;20214;-41
2020/12/14 10:28:06;;;;;;;1.80;1.70;;;9.10;99.90;;;;;;5040242;28;20297;-41
2020/12/14 10:30:33;;;;;;;2.20;1.43;;;8.90;99.90;;;;;;5036483;28;20224;-42
2020/12/14 10:33:00;;;;;;;4.13;1.83;;;8.70;99.90;;;;;;5040615;28;20671;-42
2020/12/14 10:35:27;;;;;;;5.03;1.90;;;8.70;99.90;;;;;;5036181;28;20196;-42
2020/12/14 10:37:55;;;;;;;4.47;2.13;;;8.70;99.90;;;;;;5036162;28;20261;-41
2020/12/14 10:40:22;;;;;;;5.27;2.03;;;8.60;99.90;;;;;;5037277;28;20573;-41
2020/12/14 10:42:48;;;;;;;2.50;1.67;;;8.50;99.90;;;;;;5039701;28;20218;-41
2020/12/14 10:45:15;;;;;;;1.80;1.70;;;8.40;99.90;;;;;;5037225;28;20568;-40
2020/12/14 10:47:43;;;;;;;4.72;2.03;;;8.40;99.90;;;;;;5035706;28;20223;-41
2020/12/14 10:50:10;;;;;;;1.73;1.53;;;8.40;99.90;;;;;;5033968;28;20234;-41
2020/12/14 10:52:37;;;;;;;1.80;1.50;;;8.50;99.90;;;;;;5037633;28;20569;-42
2020/12/14 10:55:05;;;;;;;1.87;1.67;;;8.60;99.90;;;;;;5037154;28;20290;-41
2020/12/14 10:57:31;;;;;;;2.17;1.45;;;8.60;99.90;;;;;;5038999;28;20295;-41
2020/12/14 11:00:06;;;;;;;3.28;1.45;;;8.60;99.90;;;;;;5041070;28;20288;-41
2020/12/14 11:02:35;;;;;;;1.93;1.80;;;8.70;99.90;;;;;;5042196;28;20225;-41
2020/12/14 11:05:04;;;;;;;2.07;1.30;;;8.70;99.90;;;;;;5035021;28;20659;-41
2020/12/14 11:07:31;;;;;;;1.83;1.10;;;8.60;99.90;;;;;;5044630;28;20203;-40
2020/12/14 11:09:58;;;;;;;2.20;1.67;;;8.60;99.90;;;;;;5048026;28;20310;-40
2020/12/14 11:12:25;;;;;;;2.10;1.90;;;8.60;99.90;;;;;;5038146;28;20729;-41
2020/12/14 11:14:51;;;;;;;2.53;1.67;;;8.60;99.90;;;;;;5044605;28;20840;-41
2020/12/14 11:17:38;;;;;;;3.78;1.75;;;8.60;99.90;;;;;;5033327;28;20197;-41
2020/12/14 11:20:26;;;;;;;2.50;1.63;;;8.70;99.90;;;;;;5026681;28;20265;-42
2020/12/14 11:23:12;;;;;;;2.53;1.45;;;8.80;99.90;;;;;;5033980;28;20195;-42
2020/12/14 11:25:39;;;;;;;3.00;1.58;;;8.80;99.90;;;;;;5042142;28;20200;-41
2020/12/14 11:28:05;;;;;;;1.42;1.15;;;8.80;99.90;;;;;;5045423;28;20596;-41
2020/12/14 11:30:32;;;;;;;2.20;2.00;;;8.80;99.90;;;;;;5043652;28;20219;-41
2020/12/14 11:32:59;;;;;;;2.57;1.23;;;8.80;99.90;;;;;;5048491;28;20199;-40
2020/12/14 11:35:26;;;;;;;3.97;2.53;;;8.80;99.90;;;;;;5038999;28;20233;-41
2020/12/14 11:37:53;;;;;;;3.63;2.10;;;8.70;99.90;;;;;;5043421;28;20208;-40
2020/12/14 11:40:19;;;;;;;5.00;1.33;;;8.70;99.90;;;;;;5041708;28;20195;-41
2020/12/14 11:42:46;;;;;;;2.50;1.17;;;8.70;99.90;;;;;;5039957;28;20596;-40
2020/12/14 11:45:13;;;;;;;3.33;1.67;;;8.80;99.90;;;;;;5033345;28;20200;-41
2020/12/14 11:47:39;;;;;;;2.47;1.60;;;8.80;99.90;;;;;;5037059;28;20499;-40
2020/12/14 11:50:06;;;;;;;2.73;1.60;;;8.70;99.90;;;;;;5044852;28;20310;-41
2020/12/14 11:52:34;;;;;;;5.30;1.70;;;8.70;99.90;;;;;;5049147;28;20707;-41
2020/12/14 11:55:01;;;;;;;3.57;1.27;;;8.80;99.90;;;;;;5035433;28;20429;-41
2020/12/14 11:57:27;;;;;;;2.92;1.48;;;8.90;99.90;;;;;;5044288;28;20563;-41
2020/12/14 11:59:54;;;;;;;4.03;1.83;;;9.10;99.90;;;;;;5036639;28;20262;-41
2020/12/14 12:02:20;;;;;;;1.90;1.80;;;9.20;99.90;;;;;;5047341;28;20219;-42
2020/12/14 12:04:48;;;;;;;3.58;2.17;;;9.20;99.90;;;;;;5046759;28;20294;-42
2020/12/14 12:07:14;;;;;;;1.97;1.40;;;9.30;99.90;;;;;;5034844;28;20205;-42
2020/12/14 12:09:41;;;;;;;4.00;2.00;;;9.40;99.90;;;;;;5046480;28;20793;-42
2020/12/14 12:12:08;;;;;;;1.58;1.33;;;9.40;99.90;;;;;;5043367;28;20242;-41
2020/12/14 12:14:35;;;;;;;2.47;1.43;;;9.30;99.90;;;;;;5041369;28;20274;-41
2020/12/14 12:17:01;;;;;;;4.35;1.73;;;9.20;99.90;;;;;;5040607;28;20714;-41
2020/12/14 12:19:28;;;;;;;2.10;1.20;;;9.00;99.90;;;;;;5041606;28;20188;-41
2020/12/14 12:21:54;;;;;;;1.80;1.60;;;9.00;99.90;;;;;;5035957;28;20310;-41
2020/12/14 12:24:21;;;;;;;4.32;1.70;;;9.00;99.90;;;;;;5044007;28;20203;-42
2020/12/14 12:26:50;;;;;;;1.97;1.87;;;9.00;99.90;;;;;;5036711;28;20292;-41
2020/12/14 12:29:16;;;;;;;4.47;1.80;;;9.10;99.90;;;;;;5042924;28;20295;-42
2020/12/14 12:31:48;;;;;;;2.53;1.60;;;9.20;99.90;;;;;;5042377;28;20216;-41
2020/12/14 12:34:15;;;;;;;2.38;1.67;;;9.20;99.90;;;;;;5037759;28;20298;-42
2020/12/14 12:36:41;;;;;;;1.43;1.33;;;9.20;99.90;;;;;;5032919;28;20284;-42
2020/12/14 12:39:08;;;;;;;1.33;1.23;;;9.20;99.90;;;;;;5032555;28;20287;-41
2020/12/14 12:41:34;;;;;;;2.17;1.80;;;9.20;99.90;;;;;;5041385;28;20211;-41
2020/12/14 12:44:02;;;;;;;3.40;1.70;;;9.30;99.90;;;;;;5035173;28;20549;-41
2020/12/14 12:46:28;;;;;;;1.60;1.50;;;9.30;99.90;;;;;;5025886;28;20195;-41
2020/12/14 12:48:55;;;;;;;2.37;1.87;;;9.20;99.90;;;;;;5031493;28;20716;-41
2020/12/14 12:51:21;;;;;;;3.17;1.80;;;9.10;99.90;;;;;;5036478;28;20227;-41
2020/12/14 12:53:48;;;;;;;2.03;1.55;;;9.20;99.90;;;;;;5031940;28;20200;-39
2020/12/14 12:56:14;;;;;;;2.60;1.83;;;9.20;99.90;;;;;;5037349;28;20277;-39
2020/12/14 12:58:41;;;;;;;2.60;1.58;;;9.20;99.90;;;;;;5039388;28;20225;-39